sensor_id;sensor_type;location;lat;lon;timestamp;pressure;altitude;pressure_sealevel;temperature;humidity
27210;BME280;14721;42.668;23.386;2023-04-28T00:00:25;95497.22;;;8.01;52.29
27210;BME280;14721;42.668;23.386;2023-04-28T00:02:51;95497.41;;;7.98;52.05
27210;BME280;14721;42.668;23.386;2023-04-28T00:05:16;95493.41;;;7.91;51.96
27210;BME280;14721;42.668;23.386;2023-04-28T00:07:42;95498.25;;;7.84;52.39
27210;BME280;14721;42.668;23.386;2023-04-28T00:10:09;95499.94;;;7.71;52.81
27210;BME280;14721;42.668;23.386;2023-04-28T00:12:35;95499.25;;;7.67;52.81
27210;BME280;14721;42.668;23.386;2023-04-28T00:15:00;95502.09;;;7.64;52.96
27210;BME280;14721;42.668;23.386;2023-04-28T00:17:26;95504.31;;;7.58;53.21
27210;BME280;14721;42.668;23.386;2023-04-28T00:19:51;95507.97;;;7.55;53.19
27210;BME280;14721;42.668;23.386;2023-04-28T00:22:17;95499.97;;;7.41;53.13
27210;BME280;14721;42.668;23.386;2023-04-28T00:24:43;95507.19;;;7.39;53.40
27210;BME280;14721;42.668;23.386;2023-04-28T00:27:09;95507.09;;;7.41;53.76
27210;BME280;14721;42.668;23.386;2023-04-28T00:29:34;95498.94;;;7.44;53.62
27210;BME280;14721;42.668;23.386;2023-04-28T00:32:03;95502.81;;;7.38;54.01
27210;BME280;14721;42.668;23.386;2023-04-28T00:34:33;95509.25;;;7.34;53.79
27210;BME280;14721;42.668;23.386;2023-04-28T00:37:02;95493.94;;;7.24;53.85
27210;BME280;14721;42.668;23.386;2023-04-28T00:39:28;95515.09;;;7.25;54.43
27210;BME280;14721;42.668;23.386;2023-04-28T00:41:53;95518.63;;;7.10;54.54
27210;BME280;14721;42.668;23.386;2023-04-28T00:44:20;95519.34;;;7.14;54.84
27210;BME280;14721;42.668;23.386;2023-04-28T00:46:46;95517.81;;;7.10;54.78
27210;BME280;14721;42.668;23.386;2023-04-28T00:49:13;95514.28;;;7.09;55.08
27210;BME280;14721;42.668;23.386;2023-04-28T00:51:43;95519.78;;;7.06;55.22
27210;BME280;14721;42.668;23.386;2023-04-28T00:54:14;95518.25;;;7.02;55.29
27210;BME280;14721;42.668;23.386;2023-04-28T00:56:39;95519.00;;;7.04;55.44
27210;BME280;14721;42.668;23.386;2023-04-28T00:59:06;95515.50;;;7.04;55.10
27210;BME280;14721;42.668;23.386;2023-04-28T01:01:33;95521.91;;;7.00;55.36
27210;BME280;14721;42.668;23.386;2023-04-28T01:04:01;95526.13;;;6.88;55.86
27210;BME280;14721;42.668;23.386;2023-04-28T01:06:27;95529.06;;;6.84;55.53
27210;BME280;14721;42.668;23.386;2023-04-28T01:08:57;95527.59;;;6.78;56.50
27210;BME280;14721;42.668;23.386;2023-04-28T01:11:22;95531.34;;;6.74;56.63
27210;BME280;14721;42.668;23.386;2023-04-28T01:13:48;95529.31;;;6.79;56.20
27210;BME280;14721;42.668;23.386;2023-04-28T01:16:13;95531.34;;;6.74;56.49
27210;BME280;14721;42.668;23.386;2023-04-28T01:18:42;95525.19;;;6.58;56.39
27210;BME280;14721;42.668;23.386;2023-04-28T01:21:11;95517.16;;;6.60;56.69
27210;BME280;14721;42.668;23.386;2023-04-28T01:23:37;95534.19;;;6.56;57.29
27210;BME280;14721;42.668;23.386;2023-04-28T01:26:04;95537.28;;;6.48;57.24
27210;BME280;14721;42.668;23.386;2023-04-28T01:28:29;95531.28;;;6.45;57.99
27210;BME280;14721;42.668;23.386;2023-04-28T01:30:55;95532.31;;;6.42;58.15
27210;BME280;14721;42.668;23.386;2023-04-28T01:33:21;95529.47;;;6.45;57.02
27210;BME280;14721;42.668;23.386;2023-04-28T01:35:46;95538.63;;;6.55;57.08
27210;BME280;14721;42.668;23.386;2023-04-28T01:38:11;95536.84;;;6.56;56.70
27210;BME280;14721;42.668;23.386;2023-04-28T01:40:37;95532.97;;;6.46;57.19
27210;BME280;14721;42.668;23.386;2023-04-28T01:43:02;95529.19;;;6.34;57.66
27210;BME280;14721;42.668;23.386;2023-04-28T01:45:28;95525.19;;;6.27;57.39
27210;BME280;14721;42.668;23.386;2023-04-28T01:47:53;95527.41;;;6.35;57.59
27210;BME280;14721;42.668;23.386;2023-04-28T01:50:19;95530.25;;;6.32;57.47
27210;BME280;14721;42.668;23.386;2023-04-28T01:52:44;95530.16;;;6.33;57.09
27210;BME280;14721;42.668;23.386;2023-04-28T01:55:10;95537.94;;;6.36;57.48
27210;BME280;14721;42.668;23.386;2023-04-28T01:57:35;95536.81;;;6.40;57.32
27210;BME280;14721;42.668;23.386;2023-04-28T02:00:02;95531.28;;;6.45;56.63
27210;BME280;14721;42.668;23.386;2023-04-28T02:02:27;95533.84;;;6.46;56.72
27210;BME280;14721;42.668;23.386;2023-04-28T02:04:53;95524.75;;;6.35;57.04
27210;BME280;14721;42.668;23.386;2023-04-28T02:07:18;95531.06;;;6.32;56.91
27210;BME280;14721;42.668;23.386;2023-04-28T02:09:44;95539.03;;;6.32;57.13
27210;BME280;14721;42.668;23.386;2023-04-28T02:12:10;95540.94;;;6.30;57.45
27210;BME280;14721;42.668;23.386;2023-04-28T02:14:35;95536.78;;;6.25;56.75
27210;BME280;14721;42.668;23.386;2023-04-28T02:17:01;95539.53;;;6.23;57.10
27210;BME280;14721;42.668;23.386;2023-04-28T02:19:27;95549.72;;;6.15;57.26
27210;BME280;14721;42.668;23.386;2023-04-28T02:21:52;95541.75;;;6.15;57.40
27210;BME280;14721;42.668;23.386;2023-04-28T02:24:18;95540.28;;;6.10;57.60
27210;BME280;14721;42.668;23.386;2023-04-28T02:26:43;95532.31;;;6.10;57.12
27210;BME280;14721;42.668;23.386;2023-04-28T02:29:09;95551.34;;;6.18;57.28
27210;BME280;14721;42.668;23.386;2023-04-28T02:31:34;95552.28;;;6.17;57.54
27210;BME280;14721;42.668;23.386;2023-04-28T02:34:00;95550.63;;;6.14;57.58
27210;BME280;14721;42.668;23.386;2023-04-28T02:36:25;95556.19;;;6.10;57.38
27210;BME280;14721;42.668;23.386;2023-04-28T02:38:52;95556.25;;;6.08;57.87
27210;BME280;14721;42.668;23.386;2023-04-28T02:41:18;95564.69;;;6.16;57.43
27210;BME280;14721;42.668;23.386;2023-04-28T02:43:43;95570.41;;;6.09;58.28
27210;BME280;14721;42.668;23.386;2023-04-28T02:46:09;95560.56;;;6.11;58.00
27210;BME280;14721;42.668;23.386;2023-04-28T02:48:35;95567.41;;;6.15;57.96
27210;BME280;14721;42.668;23.386;2023-04-28T02:51:01;95567.88;;;6.23;57.64
27210;BME280;14721;42.668;23.386;2023-04-28T02:53:27;95567.25;;;6.18;57.43
27210;BME280;14721;42.668;23.386;2023-04-28T02:55:52;95551.84;;;6.09;57.54
27210;BME280;14721;42.668;23.386;2023-04-28T02:58:18;95569.13;;;6.16;57.49
27210;BME280;14721;42.668;23.386;2023-04-28T03:00:44;95570.94;;;6.15;58.10
27210;BME280;14721;42.668;23.386;2023-04-28T03:03:09;95565.34;;;6.04;58.34
27210;BME280;14721;42.668;23.386;2023-04-28T03:05:35;95578.13;;;6.13;58.30
27210;BME280;14721;42.668;23.386;2023-04-28T03:08:00;95586.31;;;6.09;58.53
27210;BME280;14721;42.668;23.386;2023-04-28T03:10:26;95576.41;;;6.12;58.52
27210;BME280;14721;42.668;23.386;2023-04-28T03:12:51;95574.28;;;6.19;58.50
27210;BME280;14721;42.668;23.386;2023-04-28T03:15:17;95580.28;;;6.22;57.97
27210;BME280;14721;42.668;23.386;2023-04-28T03:17:42;95572.47;;;6.19;58.66
27210;BME280;14721;42.668;23.386;2023-04-28T03:20:08;95578.13;;;6.13;58.25
27210;BME280;14721;42.668;23.386;2023-04-28T03:22:34;95578.84;;;6.00;59.14
27210;BME280;14721;42.668;23.386;2023-04-28T03:25:01;95588.41;;;6.02;58.67
27210;BME280;14721;42.668;23.386;2023-04-28T03:27:27;95590.00;;;6.06;58.58
27210;BME280;14721;42.668;23.386;2023-04-28T03:29:52;95601.19;;;6.11;58.16
27210;BME280;14721;42.668;23.386;2023-04-28T03:32:18;95592.72;;;6.05;58.52
27210;BME280;14721;42.668;23.386;2023-04-28T03:34:43;95601.28;;;6.10;58.02
27210;BME280;14721;42.668;23.386;2023-04-28T03:37:09;95605.94;;;6.22;58.46
27210;BME280;14721;42.668;23.386;2023-04-28T03:39:34;95614.94;;;6.19;57.98
27210;BME280;14721;42.668;23.386;2023-04-28T03:42:00;95617.34;;;6.24;58.42
27210;BME280;14721;42.668;23.386;2023-04-28T03:44:26;95623.19;;;6.30;57.38
27210;BME280;14721;42.668;23.386;2023-04-28T03:46:52;95619.66;;;6.30;56.55
27210;BME280;14721;42.668;23.386;2023-04-28T03:49:17;95622.94;;;6.35;56.68
27210;BME280;14721;42.668;23.386;2023-04-28T03:51:43;95623.88;;;6.34;56.79
27210;BME280;14721;42.668;23.386;2023-04-28T03:54:17;95625.34;;;6.39;56.06
27210;BME280;14721;42.668;23.386;2023-04-28T03:56:43;95632.75;;;6.50;56.03
27210;BME280;14721;42.668;23.386;2023-04-28T03:59:08;95630.34;;;6.61;56.03
27210;BME280;14721;42.668;23.386;2023-04-28T04:01:37;95629.69;;;6.73;55.71
27210;BME280;14721;42.668;23.386;2023-04-28T04:04:03;95640.84;;;6.79;55.59
27210;BME280;14721;42.668;23.386;2023-04-28T04:06:29;95650.88;;;6.90;55.36
27210;BME280;14721;42.668;23.386;2023-04-28T04:08:55;95655.78;;;6.97;55.10
27210;BME280;14721;42.668;23.386;2023-04-28T04:11:20;95651.25;;;6.99;54.30
27210;BME280;14721;42.668;23.386;2023-04-28T04:13:46;95658.09;;;7.03;55.24
27210;BME280;14721;42.668;23.386;2023-04-28T04:16:12;95661.53;;;7.36;54.34
27210;BME280;14721;42.668;23.386;2023-04-28T04:18:40;95655.81;;;8.03;52.71
27210;BME280;14721;42.668;23.386;2023-04-28T04:21:06;95658.53;;;9.03;50.22
27210;BME280;14721;42.668;23.386;2023-04-28T04:23:31;95658.19;;;10.54;46.98
27210;BME280;14721;42.668;23.386;2023-04-28T04:25:57;95652.50;;;11.83;43.31
27210;BME280;14721;42.668;23.386;2023-04-28T04:28:22;95651.00;;;12.82;40.80
27210;BME280;14721;42.668;23.386;2023-04-28T04:30:47;95652.78;;;13.61;39.38
27210;BME280;14721;42.668;23.386;2023-04-28T04:33:13;95669.88;;;13.15;39.10
27210;BME280;14721;42.668;23.386;2023-04-28T04:35:40;95666.34;;;13.37;38.42
27210;BME280;14721;42.668;23.386;2023-04-28T04:38:05;95664.88;;;13.22;38.17
27210;BME280;14721;42.668;23.386;2023-04-28T04:40:31;95662.53;;;13.28;37.91
27210;BME280;14721;42.668;23.386;2023-04-28T04:42:57;95658.97;;;13.83;38.13
27210;BME280;14721;42.668;23.386;2023-04-28T04:45:23;95657.38;;;14.66;35.91
27210;BME280;14721;42.668;23.386;2023-04-28T04:47:48;95660.34;;;15.64;34.68
27210;BME280;14721;42.668;23.386;2023-04-28T04:50:14;95663.34;;;16.10;33.71
27210;BME280;14721;42.668;23.386;2023-04-28T04:52:39;95662.94;;;16.34;33.48
27210;BME280;14721;42.668;23.386;2023-04-28T04:55:05;95665.84;;;16.70;32.68
27210;BME280;14721;42.668;23.386;2023-04-28T04:57:31;95666.09;;;17.06;32.03
27210;BME280;14721;42.668;23.386;2023-04-28T04:59:56;95671.38;;;16.98;31.66
27210;BME280;14721;42.668;23.386;2023-04-28T05:02:22;95669.94;;;17.03;31.90
27210;BME280;14721;42.668;23.386;2023-04-28T05:04:47;95666.88;;;17.35;31.56
27210;BME280;14721;42.668;23.386;2023-04-28T05:07:13;95679.13;;;17.48;31.39
27210;BME280;14721;42.668;23.386;2023-04-28T05:09:38;95677.09;;;17.41;30.39
27210;BME280;14721;42.668;23.386;2023-04-28T05:12:04;95676.25;;;17.40;31.15
27210;BME280;14721;42.668;23.386;2023-04-28T05:14:29;95680.06;;;17.66;30.52
27210;BME280;14721;42.668;23.386;2023-04-28T05:16:55;95674.44;;;17.50;31.03
27210;BME280;14721;42.668;23.386;2023-04-28T05:19:22;95676.22;;;17.96;29.93
27210;BME280;14721;42.668;23.386;2023-04-28T05:21:48;95679.19;;;17.66;30.11
27210;BME280;14721;42.668;23.386;2023-04-28T05:24:14;95674.31;;;17.79;30.25
27210;BME280;14721;42.668;23.386;2023-04-28T05:26:39;95672.22;;;17.63;30.55
27210;BME280;14721;42.668;23.386;2023-04-28T05:29:07;95670.19;;;17.75;30.10
27210;BME280;14721;42.668;23.386;2023-04-28T05:31:33;95671.97;;;17.93;29.47
27210;BME280;14721;42.668;23.386;2023-04-28T05:33:59;95679.84;;;18.04;29.42
27210;BME280;14721;42.668;23.386;2023-04-28T05:36:25;95673.91;;;18.28;29.41
27210;BME280;14721;42.668;23.386;2023-04-28T05:38:51;95677.00;;;18.33;29.16
27210;BME280;14721;42.668;23.386;2023-04-28T05:41:18;95661.78;;;18.32;28.85
27210;BME280;14721;42.668;23.386;2023-04-28T05:43:43;95662.59;;;18.42;28.99
27210;BME280;14721;42.668;23.386;2023-04-28T05:46:10;95676.69;;;18.36;29.04
27210;BME280;14721;42.668;23.386;2023-04-28T05:48:36;95670.41;;;18.80;27.87
27210;BME280;14721;42.668;23.386;2023-04-28T05:51:01;95675.91;;;18.70;29.07
27210;BME280;14721;42.668;23.386;2023-04-28T05:53:27;95665.69;;;18.64;28.91
27210;BME280;14721;42.668;23.386;2023-04-28T05:55:52;95663.00;;;18.64;28.92
27210;BME280;14721;42.668;23.386;2023-04-28T05:58:18;95677.00;;;18.95;28.65
27210;BME280;14721;42.668;23.386;2023-04-28T06:00:43;95672.25;;;19.15;28.18
27210;BME280;14721;42.668;23.386;2023-04-28T06:03:09;95666.06;;;18.87;27.93
27210;BME280;14721;42.668;23.386;2023-04-28T06:05:35;95678.16;;;18.93;28.23
27210;BME280;14721;42.668;23.386;2023-04-28T06:08:01;95673.81;;;19.00;28.10
27210;BME280;14721;42.668;23.386;2023-04-28T06:10:28;95673.09;;;19.33;27.98
27210;BME280;14721;42.668;23.386;2023-04-28T06:12:54;95664.50;;;19.37;27.66
27210;BME280;14721;42.668;23.386;2023-04-28T06:15:19;95665.69;;;19.35;27.68
27210;BME280;14721;42.668;23.386;2023-04-28T06:17:45;95666.31;;;19.29;27.48
27210;BME280;14721;42.668;23.386;2023-04-28T06:20:11;95668.00;;;19.55;27.40
27210;BME280;14721;42.668;23.386;2023-04-28T06:22:38;95660.13;;;19.44;27.70
27210;BME280;14721;42.668;23.386;2023-04-28T06:25:04;95675.59;;;19.52;27.48
27210;BME280;14721;42.668;23.386;2023-04-28T06:27:30;95679.69;;;19.13;27.91
27210;BME280;14721;42.668;23.386;2023-04-28T06:29:57;95683.63;;;19.18;28.19
27210;BME280;14721;42.668;23.386;2023-04-28T06:32:22;95675.34;;;19.20;27.79
27210;BME280;14721;42.668;23.386;2023-04-28T06:34:48;95677.31;;;19.27;28.07
27210;BME280;14721;42.668;23.386;2023-04-28T06:37:13;95672.69;;;19.45;27.78
27210;BME280;14721;42.668;23.386;2023-04-28T06:39:39;95661.06;;;19.86;27.63
27210;BME280;14721;42.668;23.386;2023-04-28T06:42:04;95676.28;;;19.79;26.95
27210;BME280;14721;42.668;23.386;2023-04-28T06:44:30;95668.66;;;19.49;27.50
27210;BME280;14721;42.668;23.386;2023-04-28T06:46:56;95669.50;;;19.75;27.28
27210;BME280;14721;42.668;23.386;2023-04-28T06:49:22;95665.00;;;19.92;27.08
27210;BME280;14721;42.668;23.386;2023-04-28T06:51:47;95662.97;;;19.94;26.85
27210;BME280;14721;42.668;23.386;2023-04-28T06:54:12;95658.72;;;19.91;27.22
27210;BME280;14721;42.668;23.386;2023-04-28T06:56:38;95664.47;;;20.14;27.40
27210;BME280;14721;42.668;23.386;2023-04-28T06:59:03;95655.13;;;20.16;26.32
27210;BME280;14721;42.668;23.386;2023-04-28T07:01:29;95663.47;;;20.23;25.98
27210;BME280;14721;42.668;23.386;2023-04-28T07:03:54;95667.06;;;19.64;27.07
27210;BME280;14721;42.668;23.386;2023-04-28T07:06:23;95662.22;;;19.50;26.54
27210;BME280;14721;42.668;23.386;2023-04-28T07:08:48;95666.63;;;19.51;27.19
27210;BME280;14721;42.668;23.386;2023-04-28T07:11:14;95670.63;;;19.98;26.93
27210;BME280;14721;42.668;23.386;2023-04-28T07:13:40;95668.81;;;20.07;27.24
27210;BME280;14721;42.668;23.386;2023-04-28T07:16:09;95667.41;;;20.03;26.33
27210;BME280;14721;42.668;23.386;2023-04-28T07:18:35;95646.25;;;19.73;26.98
27210;BME280;14721;42.668;23.386;2023-04-28T07:21:00;95654.53;;;19.38;26.46
27210;BME280;14721;42.668;23.386;2023-04-28T07:23:26;95660.25;;;19.35;26.71
27210;BME280;14721;42.668;23.386;2023-04-28T07:25:51;95669.53;;;19.58;26.98
27210;BME280;14721;42.668;23.386;2023-04-28T07:28:17;95667.69;;;19.84;26.02
27210;BME280;14721;42.668;23.386;2023-04-28T07:30:42;95661.72;;;19.29;26.44
27210;BME280;14721;42.668;23.386;2023-04-28T07:33:07;95663.16;;;19.67;25.49
27210;BME280;14721;42.668;23.386;2023-04-28T07:35:33;95661.91;;;20.12;26.00
27210;BME280;14721;42.668;23.386;2023-04-28T07:37:59;95658.94;;;19.98;25.57
27210;BME280;14721;42.668;23.386;2023-04-28T07:40:24;95653.09;;;19.85;25.58
27210;BME280;14721;42.668;23.386;2023-04-28T07:42:50;95665.63;;;20.11;26.31
27210;BME280;14721;42.668;23.386;2023-04-28T07:45:16;95657.88;;;19.91;26.05
27210;BME280;14721;42.668;23.386;2023-04-28T07:47:41;95659.53;;;18.90;26.28
27210;BME280;14721;42.668;23.386;2023-04-28T07:50:07;95654.56;;;18.23;27.48
27210;BME280;14721;42.668;23.386;2023-04-28T07:52:33;95664.88;;;18.64;28.07
27210;BME280;14721;42.668;23.386;2023-04-28T07:54:59;95654.81;;;18.74;27.44
27210;BME280;14721;42.668;23.386;2023-04-28T07:57:24;95666.91;;;19.23;27.07
27210;BME280;14721;42.668;23.386;2023-04-28T07:59:51;95653.13;;;19.93;26.97
27210;BME280;14721;42.668;23.386;2023-04-28T08:02:16;95646.41;;;20.05;25.92
27210;BME280;14721;42.668;23.386;2023-04-28T08:04:43;95653.31;;;20.33;26.67
27210;BME280;14721;42.668;23.386;2023-04-28T08:07:09;95659.41;;;20.27;26.66
27210;BME280;14721;42.668;23.386;2023-04-28T08:09:34;95656.59;;;20.44;25.17
27210;BME280;14721;42.668;23.386;2023-04-28T08:12:00;95648.84;;;19.82;25.33
27210;BME280;14721;42.668;23.386;2023-04-28T08:14:26;95655.88;;;19.67;26.55
27210;BME280;14721;42.668;23.386;2023-04-28T08:16:52;95648.81;;;19.49;26.55
27210;BME280;14721;42.668;23.386;2023-04-28T08:19:19;95651.75;;;19.55;26.23
27210;BME280;14721;42.668;23.386;2023-04-28T08:21:44;95639.84;;;19.82;26.02
27210;BME280;14721;42.668;23.386;2023-04-28T08:24:10;95652.34;;;20.42;25.47
27210;BME280;14721;42.668;23.386;2023-04-28T08:26:38;95653.22;;;19.75;26.38
27210;BME280;14721;42.668;23.386;2023-04-28T08:29:04;95649.88;;;19.81;26.01
27210;BME280;14721;42.668;23.386;2023-04-28T08:31:30;95652.25;;;19.84;25.27
27210;BME280;14721;42.668;23.386;2023-04-28T08:33:56;95642.97;;;20.20;25.40
27210;BME280;14721;42.668;23.386;2023-04-28T08:36:22;95636.91;;;20.42;25.26
27210;BME280;14721;42.668;23.386;2023-04-28T08:38:55;95645.13;;;19.83;25.56
27210;BME280;14721;42.668;23.386;2023-04-28T08:41:24;95642.28;;;19.93;25.94
27210;BME280;14721;42.668;23.386;2023-04-28T08:43:52;95650.88;;;19.80;26.39
27210;BME280;14721;42.668;23.386;2023-04-28T08:46:20;95647.09;;;20.48;25.16
27210;BME280;14721;42.668;23.386;2023-04-28T08:48:48;95638.47;;;20.61;25.10
27210;BME280;14721;42.668;23.386;2023-04-28T08:51:15;95631.19;;;20.70;24.63
27210;BME280;14721;42.668;23.386;2023-04-28T08:53:44;95628.97;;;20.49;25.18
27210;BME280;14721;42.668;23.386;2023-04-28T08:56:15;95631.84;;;20.06;25.50
27210;BME280;14721;42.668;23.386;2023-04-28T08:58:42;95630.81;;;19.40;26.63
27210;BME280;14721;42.668;23.386;2023-04-28T09:01:08;95632.63;;;19.57;26.16
27210;BME280;14721;42.668;23.386;2023-04-28T09:03:33;95616.63;;;19.46;26.07
27210;BME280;14721;42.668;23.386;2023-04-28T09:06:00;95627.72;;;18.74;24.82
27210;BME280;14721;42.668;23.386;2023-04-28T09:08:26;95631.06;;;18.50;25.24
27210;BME280;14721;42.668;23.386;2023-04-28T09:11:08;95625.16;;;18.37;25.63
27210;BME280;14721;42.668;23.386;2023-04-28T09:13:35;95612.81;;;18.08;26.64
27210;BME280;14721;42.668;23.386;2023-04-28T09:16:02;95618.13;;;17.46;27.36
27210;BME280;14721;42.668;23.386;2023-04-28T09:18:28;95605.59;;;16.89;28.32
27210;BME280;14721;42.668;23.386;2023-04-28T09:21:04;95613.03;;;16.49;29.72
27210;BME280;14721;42.668;23.386;2023-04-28T09:23:29;95608.47;;;16.59;30.60
27210;BME280;14721;42.668;23.386;2023-04-28T09:25:59;95604.88;;;16.97;29.07
27210;BME280;14721;42.668;23.386;2023-04-28T09:28:24;95599.53;;;16.58;28.21
27210;BME280;14721;42.668;23.386;2023-04-28T09:30:50;95604.91;;;16.68;28.83
27210;BME280;14721;42.668;23.386;2023-04-28T09:33:16;95605.31;;;16.16;29.59
27210;BME280;14721;42.668;23.386;2023-04-28T09:35:42;95606.38;;;15.75;30.68
27210;BME280;14721;42.668;23.386;2023-04-28T09:38:10;95594.50;;;15.38;31.11
27210;BME280;14721;42.668;23.386;2023-04-28T09:41:00;95599.94;;;15.57;32.21
27210;BME280;14721;42.668;23.386;2023-04-28T09:43:31;95587.81;;;15.91;30.81
27210;BME280;14721;42.668;23.386;2023-04-28T09:46:01;95583.19;;;16.03;31.06
27210;BME280;14721;42.668;23.386;2023-04-28T09:48:34;95582.44;;;15.82;30.42
27210;BME280;14721;42.668;23.386;2023-04-28T09:51:02;95586.50;;;15.67;29.77
27210;BME280;14721;42.668;23.386;2023-04-28T09:53:28;95578.22;;;15.49;31.90
27210;BME280;14721;42.668;23.386;2023-04-28T09:55:56;95584.66;;;15.28;31.60
27210;BME280;14721;42.668;23.386;2023-04-28T09:58:23;95584.47;;;15.40;30.47
27210;BME280;14721;42.668;23.386;2023-04-28T10:00:54;95575.44;;;15.60;30.45
27210;BME280;14721;42.668;23.386;2023-04-28T10:03:25;95571.03;;;15.59;30.59
27210;BME280;14721;42.668;23.386;2023-04-28T10:05:51;95566.63;;;15.49;30.46
27210;BME280;14721;42.668;23.386;2023-04-28T10:08:21;95561.09;;;15.60;32.29
27210;BME280;14721;42.668;23.386;2023-04-28T10:10:48;95551.63;;;15.26;30.87
27210;BME280;14721;42.668;23.386;2023-04-28T10:13:17;95551.81;;;15.03;30.11
27210;BME280;14721;42.668;23.386;2023-04-28T10:15:44;95552.00;;;15.12;30.32
27210;BME280;14721;42.668;23.386;2023-04-28T10:18:11;95558.94;;;15.44;30.13
27210;BME280;14721;42.668;23.386;2023-04-28T10:20:37;95560.66;;;15.45;30.46
27210;BME280;14721;42.668;23.386;2023-04-28T10:25:35;95555.53;;;15.42;30.45
27210;BME280;14721;42.668;23.386;2023-04-28T10:28:05;95541.75;;;15.36;29.49
27210;BME280;14721;42.668;23.386;2023-04-28T10:30:31;95553.16;;;15.19;29.76
27210;BME280;14721;42.668;23.386;2023-04-28T10:33:21;95543.00;;;15.32;30.14
27210;BME280;14721;42.668;23.386;2023-04-28T10:35:47;95531.75;;;15.47;29.66
27210;BME280;14721;42.668;23.386;2023-04-28T10:40:47;95532.31;;;15.51;29.92
27210;BME280;14721;42.668;23.386;2023-04-28T10:56:11;95504.66;;;15.39;28.20
27210;BME280;14721;42.668;23.386;2023-04-28T10:58:40;95506.94;;;15.44;29.19
27210;BME280;14721;42.668;23.386;2023-04-28T11:04:08;95514.91;;;15.55;29.63
27210;BME280;14721;42.668;23.386;2023-04-28T11:06:46;95505.25;;;15.62;28.79
27210;BME280;14721;42.668;23.386;2023-04-28T11:16:57;95476.91;;;15.77;28.29
27210;BME280;14721;42.668;23.386;2023-04-28T11:19:40;95488.41;;;15.69;29.02
27210;BME280;14721;42.668;23.386;2023-04-28T11:22:17;95488.81;;;15.65;28.73
27210;BME280;14721;42.668;23.386;2023-04-28T11:25:00;95489.13;;;15.71;28.79
27210;BME280;14721;42.668;23.386;2023-04-28T11:27:27;95475.38;;;15.74;28.66
27210;BME280;14721;42.668;23.386;2023-04-28T11:29:53;95485.84;;;15.96;29.14
27210;BME280;14721;42.668;23.386;2023-04-28T11:32:26;95482.16;;;15.97;28.28
27210;BME280;14721;42.668;23.386;2023-04-28T11:34:56;95479.91;;;15.83;28.32
27210;BME280;14721;42.668;23.386;2023-04-28T11:37:23;95470.81;;;15.75;28.73
27210;BME280;14721;42.668;23.386;2023-04-28T11:39:49;95468.25;;;16.02;29.35
27210;BME280;14721;42.668;23.386;2023-04-28T11:42:15;95462.88;;;16.21;28.40
27210;BME280;14721;42.668;23.386;2023-04-28T11:44:48;95467.34;;;16.39;27.54
27210;BME280;14721;42.668;23.386;2023-04-28T11:47:16;95446.78;;;16.29;28.21
27210;BME280;14721;42.668;23.386;2023-04-28T11:49:52;95455.75;;;16.20;27.41
27210;BME280;14721;42.668;23.386;2023-04-28T11:52:17;95459.75;;;16.25;27.63
27210;BME280;14721;42.668;23.386;2023-04-28T11:54:44;95457.16;;;16.33;27.22
27210;BME280;14721;42.668;23.386;2023-04-28T11:57:20;95454.31;;;16.44;27.47
27210;BME280;14721;42.668;23.386;2023-04-28T11:59:46;95451.63;;;16.44;26.93
27210;BME280;14721;42.668;23.386;2023-04-28T12:02:11;95449.19;;;16.32;26.35
27210;BME280;14721;42.668;23.386;2023-04-28T12:04:39;95453.91;;;16.20;27.62
27210;BME280;14721;42.668;23.386;2023-04-28T12:07:17;95440.03;;;16.06;27.94
27210;BME280;14721;42.668;23.386;2023-04-28T12:12:33;95444.72;;;16.13;28.29
27210;BME280;14721;42.668;23.386;2023-04-28T12:15:01;95440.44;;;16.20;28.46
27210;BME280;14721;42.668;23.386;2023-04-28T12:17:28;95429.09;;;16.17;27.86
27210;BME280;14721;42.668;23.386;2023-04-28T12:19:59;95417.19;;;16.10;28.35
27210;BME280;14721;42.668;23.386;2023-04-28T12:22:25;95424.59;;;15.89;28.87
27210;BME280;14721;42.668;23.386;2023-04-28T12:25:11;95418.91;;;16.01;29.61
27210;BME280;14721;42.668;23.386;2023-04-28T12:27:38;95421.72;;;16.19;29.92
27210;BME280;14721;42.668;23.386;2023-04-28T12:32:46;95408.88;;;16.40;30.59
27210;BME280;14721;42.668;23.386;2023-04-28T12:35:11;95415.28;;;16.39;30.38
27210;BME280;14721;42.668;23.386;2023-04-28T12:37:37;95412.59;;;16.29;29.60
27210;BME280;14721;42.668;23.386;2023-04-28T12:40:04;95401.94;;;16.37;30.32
27210;BME280;14721;42.668;23.386;2023-04-28T12:42:31;95409.72;;;16.50;29.74
27210;BME280;14721;42.668;23.386;2023-04-28T12:44:57;95386.16;;;16.52;29.69
27210;BME280;14721;42.668;23.386;2023-04-28T12:47:22;95398.06;;;16.59;29.16
27210;BME280;14721;42.668;23.386;2023-04-28T12:49:48;95395.66;;;16.56;30.14
27210;BME280;14721;42.668;23.386;2023-04-28T12:52:17;95383.00;;;16.66;30.31
27210;BME280;14721;42.668;23.386;2023-04-28T12:54:45;95392.78;;;16.67;30.34
27210;BME280;14721;42.668;23.386;2023-04-28T12:57:15;95379.69;;;16.72;29.56
27210;BME280;14721;42.668;23.386;2023-04-28T12:59:41;95381.09;;;17.03;30.93
27210;BME280;14721;42.668;23.386;2023-04-28T13:02:07;95368.06;;;17.16;29.79
27210;BME280;14721;42.668;23.386;2023-04-28T13:04:32;95378.03;;;17.16;29.15
27210;BME280;14721;42.668;23.386;2023-04-28T13:06:58;95368.59;;;17.02;29.09
27210;BME280;14721;42.668;23.386;2023-04-28T13:09:24;95367.00;;;16.82;30.30
27210;BME280;14721;42.668;23.386;2023-04-28T13:11:50;95370.63;;;16.90;30.70
27210;BME280;14721;42.668;23.386;2023-04-28T13:14:21;95358.00;;;16.91;29.61
27210;BME280;14721;42.668;23.386;2023-04-28T13:16:46;95363.44;;;16.81;28.75
27210;BME280;14721;42.668;23.386;2023-04-28T13:19:12;95365.19;;;16.73;29.81
27210;BME280;14721;42.668;23.386;2023-04-28T13:21:42;95368.69;;;16.56;29.99
27210;BME280;14721;42.668;23.386;2023-04-28T13:24:09;95363.13;;;16.57;29.72